createdAt,value
2023-04-28T00:01:17.347Z,28.50
2023-04-28T00:03:46.129Z,24.50
2023-04-28T00:06:15.063Z,22.10
2023-04-28T00:08:43.729Z,18.50
2023-04-28T00:11:12.389Z,17.20
2023-04-28T00:13:41.169Z,16.30
2023-04-28T00:16:09.810Z,16.20
2023-04-28T00:18:38.552Z,15.20
2023-04-28T00:21:07.317Z,16.80
2023-04-28T00:23:36.286Z,18.60
2023-04-28T00:26:05.034Z,22.70
2023-04-28T00:28:34.900Z,22.20
2023-04-28T00:31:10.786Z,26.60
2023-04-28T00:33:43.348Z,26.10
2023-04-28T00:36:12.301Z,25.20
2023-04-28T00:38:40.995Z,25.20
2023-04-28T00:41:11.339Z,24.80
2023-04-28T00:43:47.695Z,26.10
2023-04-28T00:46:30.680Z,26.50
2023-04-28T00:48:59.674Z,26.20
2023-04-28T00:51:29.226Z,28.60
2023-04-28T00:53:58.154Z,27.90
2023-04-28T00:56:28.404Z,26.70
2023-04-28T00:59:00.023Z,29.30
2023-04-28T01:01:29.434Z,27.20
2023-04-28T01:03:58.336Z,27.00
2023-04-28T01:06:28.694Z,23.40
2023-04-28T01:08:57.402Z,23.60
2023-04-28T01:11:26.031Z,23.50
2023-04-28T01:13:54.768Z,26.20
2023-04-28T01:16:23.680Z,28.40
2023-04-28T01:18:52.596Z,27.00
2023-04-28T01:21:33.920Z,25.30
2023-04-28T01:24:02.652Z,30.20
2023-04-28T01:26:31.296Z,30.20
2023-04-28T01:29:00.344Z,34.70
2023-04-28T01:31:31.174Z,27.90
2023-04-28T01:34:00.322Z,27.70
2023-04-28T01:36:29.036Z,26.80
2023-04-28T01:38:57.759Z,26.90
2023-04-28T01:41:26.587Z,26.40
2023-04-28T01:43:55.335Z,26.20
2023-04-28T01:46:24.130Z,23.00
2023-04-28T01:48:52.819Z,21.30
2023-04-28T01:51:21.538Z,18.80
2023-04-28T01:53:50.190Z,20.00
2023-04-28T01:56:18.865Z,20.90
2023-04-28T01:58:47.487Z,23.00
2023-04-28T02:01:16.195Z,20.80
2023-04-28T02:03:45.023Z,20.50
2023-04-28T02:06:13.854Z,25.40
2023-04-28T02:08:42.559Z,23.80
2023-04-28T02:11:11.215Z,23.30
2023-04-28T02:13:39.924Z,25.70
2023-04-28T02:16:08.613Z,26.20
2023-04-28T02:18:37.322Z,24.80
2023-04-28T02:21:11.221Z,26.10
2023-04-28T02:23:40.723Z,24.50
2023-04-28T02:26:09.376Z,24.60
2023-04-28T02:28:38.003Z,25.10
2023-04-28T02:31:11.700Z,21.70
2023-04-28T02:33:42.379Z,22.40
2023-04-28T02:36:11.466Z,22.20
2023-04-28T02:38:41.747Z,22.90
2023-04-28T02:41:10.788Z,23.50
2023-04-28T02:43:39.444Z,30.90
2023-04-28T02:46:08.417Z,28.30
2023-04-28T02:48:37.502Z,25.10
2023-04-28T02:51:06.250Z,24.30
2023-04-28T02:53:34.981Z,25.10
2023-04-28T02:56:04.684Z,23.30
2023-04-28T02:58:33.341Z,24.00
2023-04-28T03:01:02.080Z,24.50
2023-04-28T03:03:30.848Z,22.70
2023-04-28T03:05:59.725Z,22.40
2023-04-28T03:08:28.407Z,22.80
2023-04-28T03:10:57.085Z,22.70
2023-04-28T03:13:26.023Z,25.20
2023-04-28T03:15:54.678Z,26.50
2023-04-28T03:18:23.806Z,24.10
2023-04-28T03:20:52.458Z,22.30
2023-04-28T03:23:21.315Z,28.30
2023-04-28T03:25:50.030Z,23.60
2023-04-28T03:28:18.670Z,22.40
2023-04-28T03:30:47.316Z,23.00
2023-04-28T03:33:16.166Z,22.00
2023-04-28T03:35:44.827Z,23.10
2023-04-28T03:38:13.480Z,22.90
2023-04-28T03:40:42.403Z,22.00
2023-04-28T03:43:11.150Z,23.00
2023-04-28T03:45:41.152Z,20.60
2023-04-28T03:48:09.848Z,21.90
2023-04-28T03:50:40.927Z,20.70
2023-04-28T03:53:09.618Z,23.20
2023-04-28T03:55:38.728Z,21.50
2023-04-28T03:58:07.391Z,23.70
2023-04-28T04:00:36.103Z,24.00
2023-04-28T04:03:04.832Z,22.10
2023-04-28T04:05:33.802Z,24.10
2023-04-28T04:08:03.198Z,23.70
2023-04-28T04:10:31.911Z,24.10
2023-04-28T04:13:00.591Z,21.90
2023-04-28T04:15:29.365Z,19.00
2023-04-28T04:17:58.391Z,23.60
2023-04-28T04:20:27.240Z,21.30
2023-04-28T04:22:55.954Z,23.10
2023-04-28T04:25:24.615Z,23.70
2023-04-28T04:27:53.280Z,21.40
2023-04-28T04:30:22.255Z,21.40
2023-04-28T04:32:51.172Z,27.90
2023-04-28T04:35:19.949Z,24.80
2023-04-28T04:37:48.762Z,24.70
2023-04-28T04:40:17.455Z,29.40
2023-04-28T04:42:46.116Z,31.70
2023-04-28T04:45:14.777Z,30.80
2023-04-28T04:47:44.036Z,27.30
2023-04-28T04:50:12.833Z,22.30
2023-04-28T04:52:41.578Z,20.40
2023-04-28T04:55:11.368Z,21.00
2023-04-28T04:57:40.053Z,22.30
2023-04-28T05:00:09.758Z,25.00
2023-04-28T05:02:38.730Z,26.90
2023-04-28T05:05:20.440Z,20.90
2023-04-28T05:07:51.220Z,19.40
2023-04-28T05:10:20.050Z,20.10
2023-04-28T05:12:49.280Z,19.50
2023-04-28T05:15:18.381Z,19.90
2023-04-28T05:17:47.136Z,19.70
2023-04-28T05:20:16.135Z,20.90
2023-04-28T05:22:44.781Z,20.90
2023-04-28T05:25:13.504Z,20.70
2023-04-28T05:27:42.235Z,17.20
2023-04-28T05:30:11.046Z,17.40
2023-04-28T05:32:39.753Z,20.00
2023-04-28T05:35:08.786Z,18.10
2023-04-28T05:37:38.185Z,21.50
2023-04-28T05:40:08.008Z,20.20
2023-04-28T05:42:36.664Z,19.90
2023-04-28T05:45:06.936Z,19.00
2023-04-28T05:47:35.832Z,17.50
2023-04-28T05:50:05.006Z,18.70
2023-04-28T05:52:33.665Z,7.80
2023-04-28T05:55:02.425Z,15.50
2023-04-28T05:57:33.917Z,13.60
2023-04-28T06:00:11.731Z,11.40
2023-04-28T06:02:40.600Z,12.40
2023-04-28T06:05:09.648Z,10.10
2023-04-28T06:07:38.767Z,9.50
2023-04-28T06:10:07.969Z,11.80
2023-04-28T06:12:37.455Z,10.40
2023-04-28T06:15:06.861Z,9.70
2023-04-28T06:17:35.623Z,10.20
2023-04-28T06:20:05.030Z,9.50
2023-04-28T06:22:33.706Z,9.70
2023-04-28T06:25:02.781Z,8.70
2023-04-28T06:27:32.996Z,7.90
2023-04-28T06:30:01.687Z,6.80
2023-04-28T06:32:30.388Z,9.90
2023-04-28T06:34:59.188Z,10.10
2023-04-28T06:37:27.918Z,9.40
2023-04-28T06:39:56.565Z,8.00
2023-04-28T06:42:26.468Z,8.70
2023-04-28T06:44:56.056Z,9.40
2023-04-28T06:47:24.863Z,9.30
2023-04-28T06:49:54.065Z,7.80
2023-04-28T06:52:27.200Z,6.50
2023-04-28T06:55:01.748Z,7.20
2023-04-28T06:57:30.554Z,7.20
2023-04-28T06:59:59.210Z,5.50
2023-04-28T07:02:28.086Z,6.80
2023-04-28T07:04:57.099Z,6.70
2023-04-28T07:07:26.620Z,7.50
2023-04-28T07:09:55.869Z,6.50
2023-04-28T07:12:24.599Z,5.60
2023-04-28T07:14:53.337Z,5.90
2023-04-28T07:17:21.988Z,4.90
2023-04-28T07:19:53.558Z,5.40
2023-04-28T07:22:22.256Z,4.40
2023-04-28T07:24:51.019Z,4.30
2023-04-28T07:27:19.710Z,4.20
2023-04-28T07:29:48.388Z,5.70
2023-04-28T07:32:17.267Z,5.00
2023-04-28T07:34:46.599Z,3.60
2023-04-28T07:37:16.125Z,3.60
2023-04-28T07:39:44.792Z,3.60
2023-04-28T07:42:13.526Z,3.20
2023-04-28T07:44:42.476Z,4.10
2023-04-28T07:47:11.392Z,2.90
2023-04-28T07:49:40.054Z,4.10
2023-04-28T07:52:09.838Z,3.50
2023-04-28T07:54:38.587Z,3.30
2023-04-28T07:57:07.515Z,3.70
2023-04-28T07:59:36.255Z,4.00
2023-04-28T08:02:06.095Z,4.30
2023-04-28T08:04:38.216Z,4.20
2023-04-28T08:07:08.775Z,2.90
2023-04-28T08:09:37.498Z,3.50
2023-04-28T08:12:06.221Z,3.90
2023-04-28T08:14:35.802Z,3.30
2023-04-28T08:17:04.555Z,2.80
2023-04-28T08:19:33.438Z,2.40
2023-04-28T08:22:05.916Z,2.20
2023-04-28T08:24:34.877Z,3.80
2023-04-28T08:27:04.086Z,3.10
2023-04-28T08:29:33.176Z,3.10
2023-04-28T08:32:02.328Z,4.50
2023-04-28T08:34:31.219Z,3.90
2023-04-28T08:37:00.473Z,3.60
2023-04-28T08:39:29.364Z,3.20
2023-04-28T08:41:58.230Z,2.90
2023-04-28T08:44:27.013Z,4.00
2023-04-28T08:46:59.736Z,3.60
2023-04-28T08:49:36.265Z,3.80
2023-04-28T08:52:16.830Z,4.70
2023-04-28T08:54:49.196Z,4.30
2023-04-28T08:57:20.703Z,4.00
2023-04-28T08:59:49.853Z,5.00
2023-04-28T09:02:19.705Z,3.50
2023-04-28T09:04:48.732Z,5.00
2023-04-28T09:07:17.827Z,3.80
2023-04-28T09:09:46.570Z,4.00
2023-04-28T09:12:15.894Z,4.00
2023-04-28T09:14:44.586Z,4.90
2023-04-28T09:17:14.483Z,3.30
2023-04-28T09:19:43.610Z,4.80
2023-04-28T09:22:24.899Z,4.50
2023-04-28T09:24:55.883Z,4.30
2023-04-28T09:27:29.077Z,4.00
2023-04-28T09:29:57.879Z,3.40
2023-04-28T09:32:28.391Z,5.10
2023-04-28T09:34:57.672Z,4.60
2023-04-28T09:37:30.586Z,4.80
2023-04-28T09:40:10.533Z,4.50
2023-04-28T09:42:45.030Z,4.80
2023-04-28T09:45:15.551Z,5.60
2023-04-28T09:47:47.009Z,5.30
2023-04-28T09:50:18.333Z,4.80
2023-04-28T09:52:57.681Z,4.80
2023-04-28T09:55:28.524Z,4.90
2023-04-28T09:58:02.910Z,5.50
2023-04-28T10:00:34.045Z,4.20
2023-04-28T10:03:03.430Z,5.60
2023-04-28T10:05:33.808Z,3.40
2023-04-28T10:08:03.707Z,4.40
2023-04-28T10:10:33.380Z,3.80
2023-04-28T10:13:03.094Z,5.40
2023-04-28T10:15:32.854Z,4.70
2023-04-28T10:18:03.948Z,5.10
2023-04-28T10:20:32.915Z,5.90
2023-04-28T10:23:20.700Z,3.50
2023-04-28T10:25:57.204Z,4.40
2023-04-28T10:28:26.860Z,6.00
2023-04-28T10:31:14.432Z,4.30
2023-04-28T10:33:44.733Z,4.50
2023-04-28T10:36:54.617Z,5.40
2023-04-28T10:39:23.340Z,5.50
2023-04-28T10:41:52.036Z,5.50
2023-04-28T10:44:33.219Z,5.00
2023-04-28T10:47:09.736Z,5.20
2023-04-28T10:50:03.203Z,5.80
2023-04-28T10:52:38.547Z,6.30
2023-04-28T10:55:27.011Z,6.60
2023-04-28T10:58:20.693Z,4.30
2023-04-28T11:00:50.937Z,5.10
2023-04-28T11:03:50.163Z,5.80
2023-04-28T11:06:21.478Z,5.60
2023-04-28T11:08:50.265Z,6.10
2023-04-28T11:11:21.615Z,6.40
2023-04-28T11:13:50.749Z,5.80
2023-04-28T11:16:22.034Z,6.10
2023-04-28T11:19:06.159Z,6.20
2023-04-28T11:21:35.517Z,5.40
2023-04-28T11:24:09.565Z,4.30
2023-04-28T11:26:39.442Z,7.90
2023-04-28T11:29:09.193Z,6.80
2023-04-28T11:31:38.648Z,6.90
2023-04-28T11:34:17.233Z,7.20
2023-04-28T11:36:46.051Z,6.10
2023-04-28T11:39:15.412Z,4.90
2023-04-28T11:41:45.458Z,6.20
2023-04-28T11:44:16.710Z,4.60
2023-04-28T11:46:51.661Z,6.20
2023-04-28T11:49:21.357Z,3.60
2023-04-28T11:51:52.012Z,4.70
2023-04-28T11:54:26.273Z,4.80
2023-04-28T11:56:57.475Z,3.20
2023-04-28T11:59:37.800Z,5.40
2023-04-28T12:02:07.978Z,3.50
2023-04-28T12:04:42.564Z,6.40
2023-04-28T12:07:16.358Z,5.60
2023-04-28T12:09:49.440Z,5.70
2023-04-28T12:12:40.550Z,6.10
2023-04-28T12:15:20.692Z,5.40
2023-04-28T12:17:51.254Z,5.00
2023-04-28T12:20:35.901Z,5.70
2023-04-28T12:23:05.925Z,5.90
2023-04-28T12:25:44.371Z,5.50
2023-04-28T12:28:13.202Z,4.80
2023-04-28T12:30:44.461Z,4.90
2023-04-28T12:33:27.502Z,5.50
2023-04-28T12:35:57.741Z,5.30
2023-04-28T12:38:28.328Z,6.10
2023-04-28T12:40:57.437Z,5.80
2023-04-28T12:43:27.242Z,6.10
2023-04-28T12:45:56.932Z,4.90
2023-04-28T12:48:25.764Z,4.60
2023-04-28T12:50:54.455Z,4.30
2023-04-28T12:53:23.121Z,4.30
2023-04-28T12:55:52.338Z,3.70
2023-04-28T12:58:21.442Z,4.90
2023-04-28T13:00:50.089Z,6.60
2023-04-28T13:03:20.008Z,4.50
2023-04-28T13:05:48.873Z,5.20
2023-04-28T13:08:17.638Z,4.40
2023-04-28T13:10:46.459Z,5.00
2023-04-28T13:13:15.131Z,5.00
2023-04-28T13:15:43.828Z,4.50
2023-04-28T13:18:12.513Z,4.80
2023-04-28T13:20:41.169Z,3.80
2023-04-28T13:23:09.868Z,3.50
2023-04-28T13:25:38.551Z,4.50
2023-04-28T13:28:07.265Z,4.30
2023-04-28T13:30:35.955Z,3.80
2023-04-28T13:33:04.650Z,3.10
2023-04-28T13:35:33.458Z,3.30
2023-04-28T13:38:02.170Z,4.10
2023-04-28T13:40:31.365Z,3.80
2023-04-28T13:43:00.132Z,3.30
2023-04-28T13:45:29.031Z,4.10
2023-04-28T13:47:58.089Z,3.50
2023-04-28T13:50:26.872Z,4.60
2023-04-28T13:52:55.540Z,4.90
2023-04-28T13:55:27.834Z,2.40
2023-04-28T13:57:57.180Z,3.80
2023-04-28T14:00:26.082Z,2.30
2023-04-28T14:02:55.018Z,4.00
2023-04-28T14:05:24.015Z,2.90
2023-04-28T14:07:56.058Z,2.90
2023-04-28T14:10:24.729Z,3.10
2023-04-28T14:12:53.395Z,3.90
2023-04-28T14:15:22.784Z,3.50
2023-04-28T14:17:51.503Z,2.70
2023-04-28T14:20:20.372Z,2.90
2023-04-28T14:22:49.273Z,3.50
2023-04-28T14:25:21.471Z,3.40
2023-04-28T14:27:50.991Z,3.40
2023-04-28T14:30:21.928Z,3.50
2023-04-28T14:32:50.590Z,2.70
2023-04-28T14:35:21.519Z,4.00
2023-04-28T14:37:51.708Z,2.50
2023-04-28T14:40:20.510Z,3.50
2023-04-28T14:42:49.151Z,3.10
2023-04-28T14:45:17.859Z,3.30
2023-04-28T14:47:46.971Z,3.00
2023-04-28T14:50:15.903Z,3.30
2023-04-28T14:52:44.615Z,3.40
2023-04-28T14:55:13.824Z,3.30
2023-04-28T14:57:42.774Z,3.20
2023-04-28T15:00:12.389Z,2.90
2023-04-28T15:02:41.297Z,4.40
2023-04-28T15:05:11.682Z,3.70
2023-04-28T15:07:40.993Z,2.80
2023-04-28T15:10:09.778Z,2.90
2023-04-28T15:12:38.458Z,3.20
2023-04-28T15:15:07.862Z,3.90
2023-04-28T15:17:36.525Z,2.80
2023-04-28T15:20:06.512Z,2.90
2023-04-28T15:22:36.606Z,3.90
2023-04-28T15:25:05.949Z,3.70
2023-04-28T15:27:34.693Z,3.00
2023-04-28T15:30:04.407Z,2.60
2023-04-28T15:32:33.159Z,2.60
2023-04-28T15:35:02.912Z,4.30
2023-04-28T15:37:37.648Z,3.50
2023-04-28T15:40:07.290Z,3.00
2023-04-28T15:42:36.232Z,3.20
2023-04-28T15:45:07.344Z,3.20
2023-04-28T15:47:36.832Z,3.50
2023-04-28T15:50:06.875Z,3.30
2023-04-28T15:52:38.636Z,3.90
2023-04-28T15:55:08.465Z,3.00
2023-04-28T15:57:37.320Z,3.20
2023-04-28T16:00:07.170Z,2.90
2023-04-28T16:02:37.709Z,3.20
2023-04-28T16:05:07.244Z,3.00
2023-04-28T16:07:40.936Z,3.00
2023-04-28T16:10:14.427Z,2.90
2023-04-28T16:12:43.240Z,3.20
2023-04-28T16:15:13.153Z,3.40
2023-04-28T16:17:42.729Z,2.80
2023-04-28T16:20:12.171Z,3.20
2023-04-28T16:22:41.303Z,3.30
2023-04-28T16:25:11.009Z,2.70
2023-04-28T16:27:40.604Z,3.20
2023-04-28T16:30:10.011Z,2.00
2023-04-28T16:32:40.548Z,3.00
2023-04-28T16:35:14.534Z,2.20
2023-04-28T16:37:44.635Z,2.10
2023-04-28T16:40:14.184Z,2.70
2023-04-28T16:42:45.019Z,1.90
2023-04-28T16:45:13.888Z,3.50
2023-04-28T16:47:43.503Z,2.50
2023-04-28T16:50:16.603Z,2.90
2023-04-28T16:52:45.360Z,2.30
2023-04-28T16:55:14.052Z,2.50
2023-04-28T16:57:42.980Z,2.50
2023-04-28T17:00:12.191Z,2.20
2023-04-28T17:02:41.014Z,1.90
2023-04-28T17:05:10.428Z,1.80
2023-04-28T17:07:39.132Z,2.50
2023-04-28T17:10:08.362Z,2.30
2023-04-28T17:12:37.105Z,2.50
2023-04-28T17:15:07.601Z,2.60
2023-04-28T17:17:37.469Z,2.80
2023-04-28T17:20:07.044Z,2.30
2023-04-28T17:22:35.724Z,2.90
2023-04-28T17:25:04.946Z,2.60
2023-04-28T17:27:34.212Z,2.80
2023-04-28T17:30:03.422Z,2.50
2023-04-28T17:32:32.862Z,3.90
2023-04-28T17:35:01.574Z,4.10
2023-04-28T17:37:32.821Z,3.00
2023-04-28T17:40:01.943Z,3.00
2023-04-28T17:42:31.926Z,2.90
2023-04-28T17:45:00.782Z,2.90
2023-04-28T17:47:29.480Z,3.10
2023-04-28T17:49:58.128Z,3.90
2023-04-28T17:52:26.780Z,3.90
2023-04-28T17:54:56.814Z,3.40
2023-04-28T17:57:25.570Z,3.70
2023-04-28T17:59:54.328Z,3.40
2023-04-28T18:02:22.978Z,3.10
2023-04-28T18:04:51.996Z,3.20
2023-04-28T18:07:21.155Z,4.10
2023-04-28T18:09:49.901Z,3.90
2023-04-28T18:12:18.678Z,4.40
2023-04-28T18:14:47.673Z,4.10
2023-04-28T18:17:16.365Z,4.30
2023-04-28T18:19:45.336Z,5.20
2023-04-28T18:22:13.973Z,5.70
2023-04-28T18:24:42.908Z,6.20
2023-04-28T18:27:11.571Z,6.20
2023-04-28T18:29:40.398Z,7.50
2023-04-28T18:32:10.906Z,7.80
2023-04-28T18:34:41.479Z,8.40
2023-04-28T18:37:10.955Z,9.20
2023-04-28T18:39:39.657Z,9.70
2023-04-28T18:42:09.942Z,9.00
2023-04-28T18:44:38.610Z,9.60
2023-04-28T18:47:07.437Z,9.60
2023-04-28T18:49:38.036Z,9.00
2023-04-28T18:52:07.037Z,9.30
2023-04-28T18:54:35.710Z,8.40
2023-04-28T18:57:05.096Z,8.60
2023-04-28T18:59:33.730Z,8.50
2023-04-28T19:02:03.598Z,8.40
2023-04-28T19:04:32.404Z,8.60
2023-04-28T19:07:01.303Z,8.90
2023-04-28T19:09:31.260Z,7.90
2023-04-28T19:11:59.939Z,8.20
2023-04-28T19:14:28.665Z,8.50
2023-04-28T19:17:00.992Z,7.70
2023-04-28T19:19:30.179Z,7.30
2023-04-28T19:21:58.849Z,7.80
2023-04-28T19:24:29.390Z,8.00
2023-04-28T19:27:01.278Z,8.00
2023-04-28T19:29:30.002Z,7.30
2023-04-28T19:31:58.671Z,8.10
2023-04-28T19:34:28.475Z,7.40
2023-04-28T19:36:58.899Z,8.10
2023-04-28T19:39:29.240Z,8.80
2023-04-28T19:41:58.616Z,8.90
2023-04-28T19:44:27.924Z,8.30
2023-04-28T19:46:56.700Z,9.00
2023-04-28T19:49:25.358Z,9.00
2023-04-28T19:51:54.083Z,8.00
2023-04-28T19:54:23.587Z,6.10
2023-04-28T19:56:55.843Z,8.20
2023-04-28T19:59:24.579Z,7.20
2023-04-28T20:01:53.618Z,8.10
2023-04-28T20:04:22.579Z,6.50
2023-04-28T20:06:51.730Z,7.60
2023-04-28T20:09:20.460Z,7.80
2023-04-28T20:11:49.551Z,6.40
2023-04-28T20:14:19.455Z,7.20
2023-04-28T20:16:48.200Z,7.80
2023-04-28T20:19:17.172Z,7.10
2023-04-28T20:21:45.912Z,7.80
2023-04-28T20:24:14.751Z,8.00
2023-04-28T20:26:43.457Z,7.90
2023-04-28T20:29:12.147Z,7.90
2023-04-28T20:31:40.860Z,7.50
2023-04-28T20:34:09.573Z,7.50
2023-04-28T20:36:39.997Z,7.00
2023-04-28T20:39:11.665Z,7.50
2023-04-28T20:41:43.566Z,7.70
2023-04-28T20:44:12.248Z,8.40
2023-04-28T20:46:41.113Z,7.60
2023-04-28T20:49:10.962Z,7.80
2023-04-28T20:51:45.283Z,7.50
2023-04-28T20:54:14.134Z,6.70
2023-04-28T20:56:43.017Z,7.60
2023-04-28T20:59:12.495Z,6.70
2023-04-28T21:01:41.342Z,7.00
2023-04-28T21:04:10.395Z,6.60
2023-04-28T21:06:39.175Z,6.80
2023-04-28T21:09:07.864Z,6.90
2023-04-28T21:11:36.508Z,7.40
2023-04-28T21:14:05.161Z,7.30
2023-04-28T21:16:33.999Z,7.30
2023-04-28T21:19:03.323Z,7.30
2023-04-28T21:21:33.746Z,6.70
2023-04-28T21:24:02.581Z,6.30
2023-04-28T21:26:31.651Z,8.50
2023-04-28T21:29:00.357Z,8.00
2023-04-28T21:31:29.351Z,10.00
2023-04-28T21:33:58.063Z,11.80
2023-04-28T21:36:26.867Z,12.60
2023-04-28T21:38:55.705Z,13.90
2023-04-28T21:41:25.532Z,13.30
2023-04-28T21:43:55.028Z,12.60
2023-04-28T21:46:24.062Z,13.50
2023-04-28T21:48:52.793Z,12.40
2023-04-28T21:51:21.441Z,12.10
2023-04-28T21:53:50.077Z,12.50
2023-04-28T21:56:18.912Z,11.70
2023-04-28T21:58:47.600Z,10.70
2023-04-28T22:01:18.314Z,9.40
2023-04-28T22:03:47.828Z,10.00
2023-04-28T22:06:16.743Z,9.40
2023-04-28T22:08:46.601Z,9.80
2023-04-28T22:11:15.276Z,9.40
2023-04-28T22:13:43.946Z,9.30
2023-04-28T22:16:13.404Z,7.80
2023-04-28T22:18:42.208Z,9.20
2023-04-28T22:21:11.422Z,9.80
2023-04-28T22:23:40.124Z,9.60
2023-04-28T22:26:08.753Z,10.80
2023-04-28T22:28:37.809Z,11.30
2023-04-28T22:31:06.675Z,12.80
2023-04-28T22:33:35.470Z,16.50
2023-04-28T22:36:05.174Z,18.60
2023-04-28T22:38:33.874Z,21.90
2023-04-28T22:41:02.799Z,16.50
2023-04-28T22:43:31.441Z,13.80
2023-04-28T22:46:00.135Z,12.70
2023-04-28T22:48:28.786Z,14.40
2023-04-28T22:50:57.451Z,18.00
2023-04-28T22:53:26.120Z,19.50
2023-04-28T22:55:56.775Z,20.40
2023-04-28T22:58:25.521Z,19.60
2023-04-28T23:00:54.190Z,19.30
2023-04-28T23:03:23.383Z,24.40
2023-04-28T23:05:52.269Z,22.60
2023-04-28T23:08:20.932Z,22.80
2023-04-28T23:10:49.580Z,21.70
2023-04-28T23:13:18.319Z,25.10
2023-04-28T23:15:47.116Z,23.70
2023-04-28T23:18:15.780Z,19.70
2023-04-28T23:20:47.876Z,18.80
2023-04-28T23:23:16.722Z,18.90
2023-04-28T23:25:45.386Z,19.60
2023-04-28T23:28:14.110Z,19.80
2023-04-28T23:30:43.724Z,23.90
2023-04-28T23:33:12.406Z,23.30
2023-04-28T23:35:41.981Z,20.40
2023-04-28T23:38:10.645Z,18.20
2023-04-28T23:40:39.342Z,18.50
2023-04-28T23:43:08.362Z,20.00
2023-04-28T23:45:37.095Z,18.70
2023-04-28T23:48:06.853Z,20.40
2023-04-28T23:50:35.527Z,15.40
2023-04-28T23:53:04.441Z,15.50
2023-04-28T23:55:33.117Z,12.60
2023-04-28T23:58:01.766Z,13.10
